Time;durP1;ratioP1;P1;durP2;ratioP2;P2;SDS_P1;SDS_P2;PMS_P1;PMS_P2;Temp;Humidity;BMP_temperature;BMP_pressure;BME280_temperature;BME280_humidity;BME280_pressure;Samples;Min_cycle;Max_cycle;Signal;HPM_P1;HPM_P2
2022/09/18 00:00:50;;;;;;;;;;;;;;;19.00;83.38;99407.34;4985402;28;19949;-88
2022/09/18 00:03:19;;;;;;;;;;;;;;;19.04;82.81;99399.53;4982300;28;20353;-88
2022/09/18 00:05:45;;;;;;;;;;;;;;;19.01;82.55;99405.47;5009858;28;19956;-89
2022/09/18 00:08:11;;;;;;;;;;;;;;;18.93;82.06;99388.44;4973908;28;19925;-88
2022/09/18 00:10:40;;;;;;;;;;;;;;;18.96;82.15;99395.31;4987405;28;19913;-88
2022/09/18 00:13:06;;;;;;;;;;;;;;;18.96;82.09;99395.31;5009427;28;19983;-88
2022/09/18 00:15:31;;;;;;;;;;;;;;;18.96;81.91;99398.03;5007767;28;20012;-88
2022/09/18 00:17:58;;;;;;;;;;;;;;;18.94;82.00;99392.00;4993163;28;19924;-89
2022/09/18 00:20:23;;;;;;;;;;;;;;;18.87;82.17;99392.19;5011128;28;19921;-88
2022/09/18 00:22:48;;;;;;;;;;;;;;;18.70;83.49;99394.81;4995958;28;19917;-89
2022/09/18 00:25:14;;;;;;;;;;;;;;;18.75;83.53;99397.66;5011705;28;20403;-88
2022/09/18 00:27:39;;;;;;;;;;;;;;;18.77;83.76;99409.13;4990891;28;19952;-88
2022/09/18 00:30:05;;;;;;;;;;;;;;;18.77;83.90;99409.13;5010387;28;19921;-87
2022/09/18 00:32:30;;;;;;;;;;;;;;;18.68;84.04;99418.78;5010555;28;20305;-87
2022/09/18 00:34:57;;;;;;;;;;;;;;;18.70;84.30;99415.78;5008275;28;19917;-87
2022/09/18 00:37:22;;;;;;;;;;;;;;;18.76;83.85;99410.22;4974152;28;19928;-87
2022/09/18 00:39:48;;;;;;;;;;;;;;;18.72;83.85;99400.84;4992780;28;19914;-87
2022/09/18 00:42:14;;;;;;;;;;;;;;;18.66;84.30;99412.75;4991567;28;19922;-87
2022/09/18 00:44:44;;;;;;;;;;;;;;;18.55;85.59;99414.44;4985649;28;19918;-87
2022/09/18 00:47:16;;;;;;;;;;;;;;;18.54;86.25;99401.06;4988529;28;20614;-87
2022/09/18 00:49:44;;;;;;;;;;;;;;;18.62;85.67;99408.84;4993603;28;19920;-87
2022/09/18 00:52:10;;;;;;;;;;;;;;;18.63;85.44;99410.50;4994004;28;20008;-88
2022/09/18 00:54:40;;;;;;;;;;;;;;;18.62;85.45;99408.84;4995117;28;19945;-87
2022/09/18 00:57:08;;;;;;;;;;;;;;;18.59;85.43;99395.75;4986711;28;20317;-87
2022/09/18 00:59:35;;;;;;;;;;;;;;;18.52;86.02;99392.34;4979158;28;19924;-89
2022/09/18 01:02:00;;;;;;;;;;;;;;;18.54;85.54;99392.91;4979254;28;19920;-89
2022/09/18 01:04:26;;;;;;;;;;;;;;;18.43;84.94;99399.25;4996133;28;20312;-89
2022/09/18 01:07:14;;;;;;;;;;;;;;;18.44;84.67;99395.44;4994186;28;19975;-89
2022/09/18 01:09:47;;;;;;;;;;;;;;;18.49;83.83;99392.81;4996291;28;19963;-88
2022/09/18 01:12:18;;;;;;;;;;;;;;;18.40;83.59;99394.25;5011563;28;19965;-86
2022/09/18 01:15:15;;;;;;;;;;;;;;;18.44;83.51;99392.72;5017133;28;20365;-87
2022/09/18 01:17:48;;;;;;;;;;;;;;;18.39;83.57;99381.75;5006548;28;19967;-87
2022/09/18 01:20:26;;;;;;;;;;;;;;;18.39;83.24;99384.47;5004806;28;19921;-88
2022/09/18 01:23:03;;;;;;;;;;;;;;;18.38;82.79;99397.25;4995478;28;19996;-89
2022/09/18 01:25:44;;;;;;;;;;;;;;;18.35;82.60;99398.56;5014313;28;19918;-91
2022/09/18 01:28:17;;;;;;;;;;;;;;;18.23;83.22;99388.78;5001927;28;19922;-88
2022/09/18 01:30:45;;;;;;;;;;;;;;;18.27;83.20;99407.09;5012773;28;19920;-88
2022/09/18 01:33:20;;;;;;;;;;;;;;;18.27;83.29;99398.94;5005197;28;19979;-90
2022/09/18 01:35:46;;;;;;;;;;;;;;;18.18;83.38;99397.66;5012491;28;19968;-88
2022/09/18 01:38:41;;;;;;;;;;;;;;;18.20;83.62;99395.53;4994492;28;19921;-88
2022/09/18 01:41:11;;;;;;;;;;;;;;;18.17;83.43;99390.59;4992865;28;19921;-89
2022/09/18 01:43:36;;;;;;;;;;;;;;;18.10;83.83;99384.47;5012350;28;19913;-90
2022/09/18 01:46:05;;;;;;;;;;;;;;;18.09;84.42;99374.63;5012875;28;19913;-89
2022/09/18 01:48:32;;;;;;;;;;;;;;;18.11;83.58;99384.19;5010472;28;19918;-88
2022/09/18 01:50:59;;;;;;;;;;;;;;;17.98;84.23;99379.06;5007981;28;19917;-87
2022/09/18 01:53:30;;;;;;;;;;;;;;;17.99;84.03;99388.03;5009311;28;20333;-90
2022/09/18 01:55:58;;;;;;;;;;;;;;;18.02;83.54;99382.09;4993730;28;19925;-89
2022/09/18 01:58:24;;;;;;;;;;;;;;;17.99;83.44;99385.31;4975143;28;19918;-87
2022/09/18 02:00:50;;;;;;;;;;;;;;;18.00;83.17;99384.22;4986709;28;20000;-89
2022/09/18 02:03:36;;;;;;;;;;;;;;;17.95;83.04;99392.28;4996645;28;19918;-88
2022/09/18 02:06:14;;;;;;;;;;;;;;;17.92;83.30;99399.84;5009742;28;19996;-87
2022/09/18 02:08:46;;;;;;;;;;;;;;;17.89;83.37;99402.25;4993367;28;19921;-89
2022/09/18 02:11:13;;;;;;;;;;;;;;;17.83;83.35;99400.47;4990872;28;19921;-88
2022/09/18 02:13:41;;;;;;;;;;;;;;;17.88;83.49;99400.56;4979118;28;19921;-87
2022/09/18 02:16:09;;;;;;;;;;;;;;;17.85;83.18;99398.34;4993520;28;19925;-89
2022/09/18 02:18:39;;;;;;;;;;;;;;;17.84;83.18;99396.66;5010971;28;20341;-88
2022/09/18 02:21:06;;;;;;;;;;;;;;;17.84;83.13;99397.53;4975956;28;19923;-89
2022/09/18 02:23:36;;;;;;;;;;;;;;;17.80;83.35;99412.63;4994278;28;19964;-89
2022/09/18 02:26:06;;;;;;;;;;;;;;;17.81;83.20;99408.84;4994066;28;20440;-89
2022/09/18 02:28:33;;;;;;;;;;;;;;;17.83;82.96;99401.28;5012953;28;20460;-88
2022/09/18 02:30:58;;;;;;;;;;;;;;;17.83;83.17;99406.72;5008323;28;19917;-88
2022/09/18 02:33:30;;;;;;;;;;;;;;;17.80;83.15;99404.47;5011218;28;20288;-87
2022/09/18 02:36:01;;;;;;;;;;;;;;;17.81;83.37;99405.31;5009513;28;19918;-89
2022/09/18 02:38:44;;;;;;;;;;;;;;;17.81;83.22;99408.84;5011139;28;20011;-89
2022/09/18 02:41:32;;;;;;;;;;;;;;;17.78;83.50;99408.50;4993313;28;19917;-89
2022/09/18 02:43:59;;;;;;;;;;;;;;;17.77;83.15;99413.09;4991646;28;19963;-88
2022/09/18 02:46:31;;;;;;;;;;;;;;;17.75;83.33;99412.50;4993364;28;20346;-88
2022/09/18 02:49:09;;;;;;;;;;;;;;;17.77;83.23;99404.94;5010098;28;20425;-88
2022/09/18 02:51:53;;;;;;;;;;;;;;;17.75;83.38;99420.66;5011535;28;19917;-89
2022/09/18 02:54:20;;;;;;;;;;;;;;;17.70;84.07;99409.69;5002711;28;20382;-89
2022/09/18 02:56:53;;;;;;;;;;;;;;;17.72;84.01;99410.25;4997164;28;19993;-86
2022/09/18 02:59:25;;;;;;;;;;;;;;;17.66;83.46;99411.22;4991469;28;19976;-89
2022/09/18 03:01:50;;;;;;;;;;;;;;;17.65;83.30;99407.69;4997410;28;19918;-90
2022/09/18 03:04:19;;;;;;;;;;;;;;;17.72;83.02;99405.66;4991855;28;19936;-88
2022/09/18 03:06:45;;;;;;;;;;;;;;;17.77;82.59;99413.09;5029086;28;19916;-87
2022/09/18 03:09:11;;;;;;;;;;;;;;;17.83;81.82;99428.47;5007326;28;19917;-88
2022/09/18 03:11:36;;;;;;;;;;;;;;;17.82;81.07;99412.41;5007800;28;19928;-88
2022/09/18 03:14:02;;;;;;;;;;;;;;;17.83;81.10;99427.66;4983075;28;20362;-89
2022/09/18 03:16:28;;;;;;;;;;;;;;;17.89;80.34;99434.88;5008753;28;19980;-90
2022/09/18 03:18:56;;;;;;;;;;;;;;;17.96;79.46;99442.88;4994263;28;19917;-89
2022/09/18 03:21:21;;;;;;;;;;;;;;;17.99;79.09;99437.78;4992924;28;19918;-88
2022/09/18 03:23:48;;;;;;;;;;;;;;;18.02;78.63;99440.03;4977531;28;19944;-90
2022/09/18 03:26:14;;;;;;;;;;;;;;;18.12;78.43;99445.69;4993277;28;19923;-89
2022/09/18 03:28:40;;;;;;;;;;;;;;;18.08;78.38;99452.69;5011456;28;19918;-88
2022/09/18 03:31:05;;;;;;;;;;;;;;;18.14;78.83;99467.19;4995053;28;19964;-89
2022/09/18 03:33:30;;;;;;;;;;;;;;;18.16;78.65;99469.69;4992590;28;19917;-87
2022/09/18 03:35:56;;;;;;;;;;;;;;;18.23;78.92;99476.66;4976310;28;20385;-88
2022/09/18 03:38:21;;;;;;;;;;;;;;;18.16;79.20;99486.00;4993059;28;19972;-88
2022/09/18 03:40:48;;;;;;;;;;;;;;;18.12;79.26;99491.09;4993727;28;19921;-89
2022/09/18 03:43:16;;;;;;;;;;;;;;;18.04;79.85;99505.06;4994118;28;19966;-86
2022/09/18 03:45:42;;;;;;;;;;;;;;;18.07;78.86;99515.47;5010559;28;19921;-88
2022/09/18 03:48:07;;;;;;;;;;;;;;;18.04;78.64;99533.09;4979760;28;19917;-89
2022/09/18 03:50:34;;;;;;;;;;;;;;;17.97;78.75;99554.13;5010663;28;19917;-89
2022/09/18 03:52:59;;;;;;;;;;;;;;;17.90;78.31;99559.69;4974976;28;19918;-89
2022/09/18 03:55:26;;;;;;;;;;;;;;;17.88;78.28;99567.25;4974428;28;19917;-88
2022/09/18 03:57:51;;;;;;;;;;;;;;;17.77;77.91;99556.31;5008807;28;19925;-87
2022/09/18 04:00:17;;;;;;;;;;;;;;;17.72;77.65;99565.19;5011360;28;20284;-87
2022/09/18 04:02:42;;;;;;;;;;;;;;;17.63;78.17;99553.84;5011937;28;19967;-88
2022/09/18 04:05:09;;;;;;;;;;;;;;;17.69;78.08;99563.75;5009562;28;19944;-90
2022/09/18 04:07:35;;;;;;;;;;;;;;;17.69;78.47;99568.38;4993664;28;19918;-89
2022/09/18 04:10:00;;;;;;;;;;;;;;;17.69;79.24;99573.81;4993853;28;20318;-89
2022/09/18 04:12:25;;;;;;;;;;;;;;;17.71;78.85;99580.66;4995177;28;19913;-87
2022/09/18 04:14:54;;;;;;;;;;;;;;;17.81;78.93;99585.56;4992964;28;19924;-89
2022/09/18 04:17:28;;;;;;;;;;;;;;;17.80;78.85;99594.75;5012187;28;19921;-89
2022/09/18 04:19:56;;;;;;;;;;;;;;;17.80;78.35;99583.88;5009050;28;19914;-87
2022/09/18 04:22:22;;;;;;;;;;;;;;;17.78;78.49;99582.47;5008291;28;19918;-86
2022/09/18 04:24:49;;;;;;;;;;;;;;;17.71;78.00;99596.16;5013438;28;19909;-88
2022/09/18 04:27:15;;;;;;;;;;;;;;;17.76;77.76;99604.44;4990282;28;19917;-88
2022/09/18 04:29:42;;;;;;;;;;;;;;;17.83;77.42;99618.78;5016687;28;20424;-89
2022/09/18 04:32:08;;;;;;;;;;;;;;;17.75;76.81;99631.84;4999763;28;19924;-88
2022/09/18 04:34:33;;;;;;;;;;;;;;;17.70;76.56;99640.72;5003901;28;19921;-90
2022/09/18 04:36:59;;;;;;;;;;;;;;;17.70;76.49;99662.47;5012004;28;19924;-87
2022/09/18 04:39:24;;;;;;;;;;;;;;;17.70;76.64;99670.63;4991818;28;19940;-86
2022/09/18 04:41:51;;;;;;;;;;;;;;;17.62;74.43;99676.38;4983192;28;20393;-90
2022/09/18 04:44:17;;;;;;;;;;;;;;;17.72;74.77;99682.06;4998208;28;19913;-87
2022/09/18 04:46:42;;;;;;;;;;;;;;;17.75;73.33;99680.78;4996215;28;19960;-89
2022/09/18 04:49:09;;;;;;;;;;;;;;;17.69;72.78;99693.41;5003007;28;20704;-88
2022/09/18 04:51:34;;;;;;;;;;;;;;;17.74;71.30;99696.25;5016083;28;20353;-89
2022/09/18 04:54:00;;;;;;;;;;;;;;;17.78;71.67;99697.47;4996534;28;19917;-89
2022/09/18 04:56:25;;;;;;;;;;;;;;;17.62;70.03;99698.13;5012006;28;20016;-89
2022/09/18 04:58:51;;;;;;;;;;;;;;;17.51;69.10;99697.84;4997180;28;20391;-90
2022/09/18 05:01:16;;;;;;;;;;;;;;;17.42;69.32;99704.66;5015935;28;19921;-90
2022/09/18 05:03:42;;;;;;;;;;;;;;;17.29;69.32;99688.53;4981660;28;20436;-91
2022/09/18 05:06:08;;;;;;;;;;;;;;;17.23;69.96;99705.72;4997849;28;19980;-91
2022/09/18 05:08:36;;;;;;;;;;;;;;;17.19;70.49;99710.78;5005675;28;20291;-90
2022/09/18 05:11:03;;;;;;;;;;;;;;;16.93;70.57;99717.38;4981594;28;19922;-92
2022/09/18 05:13:29;;;;;;;;;;;;;;;16.78;69.67;99735.84;5001183;28;19940;-88
2022/09/18 05:15:56;;;;;;;;;;;;;;;16.68;69.28;99755.38;5023733;28;19921;-88
2022/09/18 05:18:22;;;;;;;;;;;;;;;16.45;69.58;99737.00;5012011;28;19975;-90
2022/09/18 05:20:50;;;;;;;;;;;;;;;16.40;68.98;99751.22;4996274;28;19918;-90
2022/09/18 05:23:15;;;;;;;;;;;;;;;16.29;69.21;99743.78;4992331;28;20328;-91
2022/09/18 05:25:41;;;;;;;;;;;;;;;16.39;68.63;99748.75;4994541;28;20512;-88
2022/09/18 05:28:08;;;;;;;;;;;;;;;16.32;68.81;99756.06;5009824;28;19917;-88
2022/09/18 05:30:34;;;;;;;;;;;;;;;16.53;68.28;99750.28;4998405;28;19909;-89
2022/09/18 05:33:04;;;;;;;;;;;;;;;17.54;64.60;99752.81;4997370;28;19917;-90
2022/09/18 05:35:30;;;;;;;;;;;;;;;18.04;62.70;99760.72;5014622;28;19925;-90
2022/09/18 05:37:55;;;;;;;;;;;;;;;18.12;62.47;99760.38;5015318;28;19917;-89
2022/09/18 05:40:23;;;;;;;;;;;;;;;18.96;59.07;99752.06;4998335;28;19917;-91
2022/09/18 05:42:51;;;;;;;;;;;;;;;19.68;56.09;99764.50;5012134;28;19928;-88
2022/09/18 05:45:16;;;;;;;;;;;;;;;20.08;54.73;99769.09;4997728;28;19980;-87
2022/09/18 05:47:43;;;;;;;;;;;;;;;20.11;54.03;99779.50;5010184;28;19944;-87
2022/09/18 05:50:09;;;;;;;;;;;;;;;20.32;53.43;99767.91;5009996;28;19921;-88
2022/09/18 05:52:34;;;;;;;;;;;;;;;20.61;52.26;99784.25;4996755;28;20020;-88
2022/09/18 05:55:00;;;;;;;;;;;;;;;20.52;52.11;99781.06;4990913;28;19956;-88
2022/09/18 05:57:25;;;;;;;;;;;;;;;20.49;51.85;99775.28;5003900;28;20032;-90
2022/09/18 05:59:51;;;;;;;;;;;;;;;20.59;51.27;99791.84;4975001;28;20442;-88
2022/09/18 06:02:19;;;;;;;;;;;;;;;20.72;50.81;99791.53;4976970;28;19917;-88
2022/09/18 06:04:44;;;;;;;;;;;;;;;20.70;50.72;99799.13;5005667;28;19956;-90
2022/09/18 06:07:11;;;;;;;;;;;;;;;20.63;48.38;99806.66;4970909;28;19965;-90
2022/09/18 06:09:38;;;;;;;;;;;;;;;20.14;48.28;99793.50;4957198;28;19918;-89
2022/09/18 06:12:05;;;;;;;;;;;;;;;20.28;47.66;99796.75;4994165;28;20348;-90
2022/09/18 06:14:31;;;;;;;;;;;;;;;20.08;48.02;99796.38;4979605;28;19921;-90
2022/09/18 06:16:56;;;;;;;;;;;;;;;20.31;47.70;99817.28;4976021;28;19944;-89
2022/09/18 06:19:24;;;;;;;;;;;;;;;20.34;47.48;99817.59;4961980;28;19918;-89
2022/09/18 06:21:50;;;;;;;;;;;;;;;20.19;48.91;99823.59;4972364;28;19956;-87
2022/09/18 06:24:15;;;;;;;;;;;;;;;20.10;48.74;99821.53;4976577;28;19955;-88
2022/09/18 06:26:40;;;;;;;;;;;;;;;19.98;48.12;99830.59;4977314;28;20386;-90
2022/09/18 06:29:07;;;;;;;;;;;;;;;19.73;47.56;99832.78;4993682;28;19941;-91
2022/09/18 06:31:34;;;;;;;;;;;;;;;19.28;48.54;99842.44;4961665;28;19920;-91
2022/09/18 06:34:00;;;;;;;;;;;;;;;19.16;49.30;99834.28;4987612;28;19913;-89
2022/09/18 06:36:27;;;;;;;;;;;;;;;18.99;49.60;99855.13;4974584;28;19957;-88
2022/09/18 06:38:54;;;;;;;;;;;;;;;18.97;49.99;99874.41;4994865;28;19920;-87
2022/09/18 06:41:22;;;;;;;;;;;;;;;19.00;50.24;99866.84;4993758;28;19917;-90
2022/09/18 06:43:49;;;;;;;;;;;;;;;18.81;49.92;99861.50;4994509;28;20447;-89
2022/09/18 06:46:14;;;;;;;;;;;;;;;18.61;50.92;99861.75;4976142;28;19928;-87
2022/09/18 06:48:39;;;;;;;;;;;;;;;18.84;50.31;99874.63;5004030;28;19917;-87
2022/09/18 06:51:05;;;;;;;;;;;;;;;18.95;50.28;99878.44;4985287;28;19918;-88
2022/09/18 06:53:31;;;;;;;;;;;;;;;19.32;48.92;99849.06;4978319;28;19914;-90
2022/09/18 06:56:02;;;;;;;;;;;;;;;19.18;48.58;99859.38;4991671;28;20382;-90
2022/09/18 06:58:27;;;;;;;;;;;;;;;18.98;47.78;99886.97;4989561;28;19925;-87
2022/09/18 07:00:57;;;;;;;;;;;;;;;19.07;47.29;99890.19;4982449;28;19918;-86
2022/09/18 07:03:22;;;;;;;;;;;;;;;18.95;47.66;99881.16;4990976;28;20396;-86
2022/09/18 07:05:47;;;;;;;;;;;;;;;19.07;47.27;99894.81;4974643;28;20008;-87
2022/09/18 07:08:13;;;;;;;;;;;;;;;19.04;47.66;99874.31;4973204;28;19960;-87
2022/09/18 07:10:38;;;;;;;;;;;;;;;19.16;47.51;99888.75;4990706;28;19953;-88
2022/09/18 07:13:04;;;;;;;;;;;;;;;19.12;45.95;99882.13;4990341;28;19929;-90
2022/09/18 07:15:29;;;;;;;;;;;;;;;19.30;45.12;99872.19;4985967;28;19918;-92
2022/09/18 07:17:58;;;;;;;;;;;;;;;19.39;44.88;99882.50;4991007;28;19921;-92
2022/09/18 07:20:24;;;;;;;;;;;;;;;19.45;44.89;99901.69;4970007;28;19924;-89
2022/09/18 07:22:52;;;;;;;;;;;;;;;19.61;44.24;99901.78;4987912;28;20258;-87
2022/09/18 07:25:18;;;;;;;;;;;;;;;19.67;44.38;99894.56;4976009;28;19940;-91
2022/09/18 07:27:43;;;;;;;;;;;;;;;20.11;44.42;99914.06;4976029;28;20388;-85
2022/09/18 07:30:09;;;;;;;;;;;;;;;20.21;43.03;99921.63;5000919;28;20325;-85
2022/09/18 07:32:35;;;;;;;;;;;;;;;21.07;40.50;99914.22;5003610;28;19929;-88
2022/09/18 07:41:15;;;;;;;;;;;;;;;24.18;33.08;99939.66;4993170;28;19995;-88
2022/09/18 07:43:56;;;;;;;;;;;;;;;24.06;32.94;99941.81;4996747;28;20029;-92
2022/09/18 07:49:22;;;;;;;;;;;;;;;25.09;31.88;99920.09;4995491;28;20112;-85
2022/09/18 07:51:47;;;;;;;;;;;;;;;24.79;31.43;99949.19;4991684;28;19953;-87
2022/09/18 07:54:14;;;;;;;;;;;;;;;24.35;32.14;99925.72;5002709;28;19925;-87
2022/09/18 07:56:41;;;;;;;;;;;;;;;23.47;33.57;99909.91;5002874;28;19981;-89
2022/09/18 07:59:06;;;;;;;;;;;;;;;23.82;33.54;99913.16;4986633;28;19925;-88
2022/09/18 08:01:32;;;;;;;;;;;;;;;23.73;33.63;99891.66;4970181;28;20017;-89
2022/09/18 08:03:58;;;;;;;;;;;;;;;24.29;32.33;99923.22;4972542;28;20017;-88
2022/09/18 08:06:27;;;;;;;;;;;;;;;24.50;31.88;99907.66;4991367;28;19917;-92
2022/09/18 08:08:58;;;;;;;;;;;;;;;25.22;31.06;99905.81;4973810;28;20393;-90
2022/09/18 08:11:23;;;;;;;;;;;;;;;24.50;31.91;99902.97;4969170;28;19918;-86
2022/09/18 08:13:57;;;;;;;;;;;;;;;24.55;31.54;99922.22;4975758;28;19922;-87
2022/09/18 08:16:23;;;;;;;;;;;;;;;24.90;31.24;99911.56;4989896;28;19939;-87
2022/09/18 08:18:48;;;;;;;;;;;;;;;24.55;31.20;99889.25;4972820;28;20389;-90
2022/09/18 08:21:14;;;;;;;;;;;;;;;24.79;31.43;99888.72;4986982;28;19949;-86
2022/09/18 08:23:40;;;;;;;;;;;;;;;25.42;30.50;99881.00;4986958;28;19914;-87
2022/09/18 08:26:05;;;;;;;;;;;;;;;24.40;31.82;99878.22;4972376;28;19917;-85
2022/09/18 08:28:30;;;;;;;;;;;;;;;23.64;33.07;99901.47;4984806;28;19975;-82
2022/09/18 08:30:57;;;;;;;;;;;;;;;24.23;32.23;99890.25;4972662;28;20352;-84
2022/09/18 08:33:22;;;;;;;;;;;;;;;24.29;31.82;99906.75;4973616;28;19937;-85
2022/09/18 08:35:49;;;;;;;;;;;;;;;24.47;31.30;99886.19;4973445;28;20370;-84
2022/09/18 08:38:14;;;;;;;;;;;;;;;24.87;30.76;99901.94;4974124;28;20393;-84
2022/09/18 08:40:58;;;;;;;;;;;;;;;25.68;29.62;99938.75;4993033;28;20013;-84
2022/09/18 08:43:24;;;;;;;;;;;;;;;25.21;29.67;99918.72;4987753;28;20063;-85
2022/09/18 08:45:49;;;;;;;;;;;;;;;25.13;29.41;99908.25;4992267;28;19922;-85
2022/09/18 08:48:15;;;;;;;;;;;;;;;25.56;29.05;99954.75;4991661;28;20389;-84
2022/09/18 08:50:42;;;;;;;;;;;;;;;25.09;29.42;99928.34;4991369;28;19941;-83
2022/09/18 08:53:19;;;;;;;;;;;;;;;25.23;28.79;99940.47;4974417;28;19996;-83
2022/09/18 08:55:46;;;;;;;;;;;;;;;25.53;28.82;99922.28;4991109;28;19922;-84
2022/09/18 08:58:14;;;;;;;;;;;;;;;26.07;28.04;99935.38;4987412;28;19921;-84
2022/09/18 09:01:01;;;;;;;;;;;;;;;26.03;28.45;99945.28;5009862;28;19988;-84
2022/09/18 09:03:35;;;;;;;;;;;;;;;26.50;27.63;99939.31;5010608;28;19928;-84
2022/09/18 09:06:04;;;;;;;;;;;;;;;26.72;26.56;99954.63;5001290;28;19917;-83
2022/09/18 09:08:31;;;;;;;;;;;;;;;26.89;26.85;99957.00;5010489;28;19909;-85
2022/09/18 09:11:16;;;;;;;;;;;;;;;26.98;26.88;99935.97;4995529;28;20362;-85
2022/09/18 09:14:00;;;;;;;;;;;;;;;27.92;25.35;99955.00;5014419;28;20309;-82
2022/09/18 09:16:29;;;;;;;;;;;;;;;28.08;25.03;99963.13;5013355;28;19925;-85
2022/09/18 09:18:59;;;;;;;;;;;;;;;29.12;23.47;99965.03;5013895;28;20366;-85
2022/09/18 09:21:30;;;;;;;;;;;;;;;29.35;23.26;99976.28;4996385;28;19917;-85
2022/09/18 09:23:58;;;;;;;;;;;;;;;29.15;23.39;99975.50;5014396;28;20342;-85
2022/09/18 09:26:23;;;;;;;;;;;;;;;28.65;24.12;99972.34;5000575;28;20420;-84
2022/09/18 09:28:58;;;;;;;;;;;;;;;27.64;25.53;99983.44;4996631;28;19956;-85
2022/09/18 09:31:23;;;;;;;;;;;;;;;27.47;25.08;99993.00;5001892;28;20366;-84
2022/09/18 09:33:50;;;;;;;;;;;;;;;26.64;26.16;99989.13;4996655;28;19914;-84
2022/09/18 09:36:15;;;;;;;;;;;;;;;27.83;25.23;99992.66;4995862;28;20463;-84
2022/09/18 09:38:46;;;;;;;;;;;;;;;28.75;24.36;99988.81;4995124;28;19913;-84
2022/09/18 09:41:17;;;;;;;;;;;;;;;28.50;24.18;100005.75;4996181;28;19917;-85
2022/09/18 09:43:48;;;;;;;;;;;;;;;27.50;25.16;100006.19;5007954;28;19909;-84
2022/09/18 09:46:32;;;;;;;;;;;;;;;27.63;24.99;100006.63;4996481;28;19917;-84
2022/09/18 09:49:00;;;;;;;;;;;;;;;28.61;23.68;99999.78;5003181;28;19909;-84
2022/09/18 09:51:33;;;;;;;;;;;;;;;28.71;23.72;100001.59;5019208;28;19917;-84
2022/09/18 09:53:59;;;;;;;;;;;;;;;29.07;23.85;100009.38;5013257;28;19987;-84
2022/09/18 09:56:28;;;;;;;;;;;;;;;29.61;22.59;99996.84;4995314;28;19909;-84
2022/09/18 09:59:12;;;;;;;;;;;;;;;29.88;22.01;100003.63;4995557;28;19969;-85
2022/09/18 10:01:41;;;;;;;;;;;;;;;29.18;22.69;100021.94;5012929;28;19924;-84
2022/09/18 10:04:20;;;;;;;;;;;;;;;28.86;23.06;100002.50;4995617;28;19921;-83
2022/09/18 10:06:54;;;;;;;;;;;;;;;30.22;21.63;100005.16;5012505;28;19913;-85
2022/09/18 10:09:23;;;;;;;;;;;;;;;29.54;22.02;100023.31;4997536;28;19969;-84
2022/09/18 10:11:50;;;;;;;;;;;;;;;29.92;21.66;99990.78;5013460;28;20444;-84
2022/09/18 10:14:19;;;;;;;;;;;;;;;29.84;22.04;99999.81;4995768;28;20396;-86
2022/09/18 10:16:49;;;;;;;;;;;;;;;30.86;20.68;99997.75;5012453;28;20341;-83
2022/09/18 10:19:17;;;;;;;;;;;;;;;30.18;21.33;99990.28;4995492;28;19918;-84
2022/09/18 10:21:44;;;;;;;;;;;;;;;29.92;21.75;99996.31;5012858;28;19913;-84
2022/09/18 10:24:29;;;;;;;;;;;;;;;30.81;20.85;100003.41;4995647;28;20315;-84
2022/09/18 10:27:06;;;;;;;;;;;;;;;30.30;21.35;99993.41;5009785;28;19913;-83
2022/09/18 10:29:32;;;;;;;;;;;;;;;29.35;22.06;99999.25;5013009;28;19913;-83
2022/09/18 10:31:58;;;;;;;;;;;;;;;29.02;22.26;99990.06;5012061;28;19963;-83
2022/09/18 10:34:35;;;;;;;;;;;;;;;27.97;23.29;100012.13;5013160;28;19913;-85
2022/09/18 10:37:02;;;;;;;;;;;;;;;28.62;22.88;100004.19;4992910;28;20012;-83
2022/09/18 10:39:29;;;;;;;;;;;;;;;29.18;22.17;99993.47;4995221;28;19922;-83
2022/09/18 10:41:59;;;;;;;;;;;;;;;28.28;23.11;100015.38;5013221;28;20008;-83
2022/09/18 10:44:29;;;;;;;;;;;;;;;27.68;23.37;100001.91;5025370;28;20297;-84
2022/09/18 10:47:01;;;;;;;;;;;;;;;27.35;24.56;99996.13;4993428;28;19925;-84
2022/09/18 10:49:28;;;;;;;;;;;;;;;28.21;23.63;99967.91;4996589;28;19947;-83
2022/09/18 10:52:12;;;;;;;;;;;;;;;27.94;23.89;99976.81;4978596;28;19956;-83
2022/09/18 10:54:38;;;;;;;;;;;;;;;28.18;23.61;99996.16;5012547;28;19918;-83
2022/09/18 10:57:42;;;;;;;;;;;;;;;27.78;24.06;99992.69;5012569;28;20421;-83
2022/09/18 11:00:10;;;;;;;;;;;;;;;27.39;24.45;99988.06;4935799;28;20403;-84
2022/09/18 11:02:39;;;;;;;;;;;;;;;27.70;24.01;99977.59;4956290;28;19920;-84
2022/09/18 11:05:13;;;;;;;;;;;;;;;27.82;23.79;99992.94;4978475;28;19920;-86
2022/09/18 11:07:44;;;;;;;;;;;;;;;26.61;25.21;100005.41;5014338;28;19917;-85
2022/09/18 11:10:14;;;;;;;;;;;;;;;27.08;24.92;99990.22;4998016;28;19913;-85
2022/09/18 11:12:39;;;;;;;;;;;;;;;26.51;26.19;100009.84;4996861;28;19917;-83
2022/09/18 11:15:06;;;;;;;;;;;;;;;25.79;27.29;99995.44;4998795;28;19913;-84
2022/09/18 11:17:33;;;;;;;;;;;;;;;25.15;27.85;100001.50;4994173;28;20011;-84
2022/09/18 11:19:58;;;;;;;;;;;;;;;24.87;28.01;100000.91;4994538;28;19918;-85
2022/09/18 11:22:42;;;;;;;;;;;;;;;24.90;27.75;100011.34;4994855;28;19913;-84
2022/09/18 11:25:07;;;;;;;;;;;;;;;24.19;28.24;100022.88;4978440;28;19921;-83
2022/09/18 11:27:46;;;;;;;;;;;;;;;23.91;28.38;100010.38;5013780;28;20011;-82
2022/09/18 11:30:14;;;;;;;;;;;;;;;23.52;29.13;100027.06;4992790;28;20012;-83
2022/09/18 11:32:39;;;;;;;;;;;;;;;23.34;29.86;100020.91;4987752;28;20383;-83
2022/09/18 11:35:09;;;;;;;;;;;;;;;23.26;30.28;99982.97;4972818;28;19917;-84
2022/09/18 11:37:47;;;;;;;;;;;;;;;23.69;30.00;100014.00;5002601;28;19914;-82
2022/09/18 11:40:23;;;;;;;;;;;;;;;23.66;30.18;100011.81;4994592;28;19941;-84
2022/09/18 11:42:49;;;;;;;;;;;;;;;23.75;30.19;100023.16;4994625;28;19913;-82
2022/09/18 11:45:24;;;;;;;;;;;;;;;23.39;30.23;100042.06;4993786;28;19913;-83
2022/09/18 11:47:54;;;;;;;;;;;;;;;23.69;29.56;100035.16;5012162;28;19914;-83
2022/09/18 11:50:21;;;;;;;;;;;;;;;23.31;30.09;100032.38;4980440;28;19913;-83
2022/09/18 11:52:51;;;;;;;;;;;;;;;23.39;29.51;100075.78;4981124;28;19917;-83
2022/09/18 11:55:22;;;;;;;;;;;;;;;23.06;29.44;100059.53;5014903;28;19924;-83
2022/09/18 11:57:58;;;;;;;;;;;;;;;23.46;29.42;100055.53;4981458;28;19978;-83
2022/09/18 12:00:25;;;;;;;;;;;;;;;23.74;29.51;100041.56;5015036;28;19917;-82
2022/09/18 12:03:10;;;;;;;;;;;;;;;24.23;28.92;100074.28;5014136;28;19913;-83
2022/09/18 12:05:57;;;;;;;;;;;;;;;24.02;28.71;100056.00;5011451;28;19921;-84
2022/09/18 12:08:33;;;;;;;;;;;;;;;23.69;28.84;100063.41;5005270;28;19922;-83
2022/09/18 12:11:01;;;;;;;;;;;;;;;23.67;28.77;100057.38;5004536;28;19913;-82
2022/09/18 12:13:47;;;;;;;;;;;;;;;23.12;29.37;100064.81;5010703;28;19928;-83
2022/09/18 12:16:17;;;;;;;;;;;;;;;23.14;29.32;100072.78;4996101;28;19921;-82
2022/09/18 12:18:46;;;;;;;;;;;;;;;23.22;29.47;100077.81;5012322;28;20008;-83
2022/09/18 12:21:14;;;;;;;;;;;;;;;22.88;30.04;100047.00;4996891;28;20008;-83
2022/09/18 12:23:39;;;;;;;;;;;;;;;22.89;30.00;100054.94;5005321;28;20008;-83
2022/09/18 12:26:05;;;;;;;;;;;;;;;22.96;29.75;100044.59;5027595;28;20270;-83
2022/09/18 12:28:33;;;;;;;;;;;;;;;23.33;29.70;100059.53;5021186;28;19924;-85
2022/09/18 12:30:58;;;;;;;;;;;;;;;23.83;29.10;100073.97;5021870;28;19977;-84
2022/09/18 12:33:32;;;;;;;;;;;;;;;23.73;28.73;100067.28;5009279;28;19921;-83
2022/09/18 12:36:16;;;;;;;;;;;;;;;23.32;28.88;100071.59;5006315;28;19917;-83
2022/09/18 12:38:42;;;;;;;;;;;;;;;22.99;29.40;100080.84;4998333;28;19979;-84
2022/09/18 12:41:12;;;;;;;;;;;;;;;23.09;29.70;100078.22;4990404;28;20373;-83
2022/09/18 12:43:44;;;;;;;;;;;;;;;22.73;30.38;100075.88;5015649;28;20175;-83
2022/09/18 12:46:18;;;;;;;;;;;;;;;22.47;31.13;100066.50;5019394;28;19918;-82
2022/09/18 12:48:45;;;;;;;;;;;;;;;22.81;30.50;100074.59;5006421;28;19921;-81
2022/09/18 12:51:29;;;;;;;;;;;;;;;22.87;30.01;100079.03;5025031;28;19917;-81
2022/09/18 12:53:56;;;;;;;;;;;;;;;22.66;30.53;100082.63;5019288;28;19917;-89
2022/09/18 12:56:43;;;;;;;;;;;;;;;22.77;30.54;100066.03;5027067;28;19928;-86
2022/09/18 12:59:11;;;;;;;;;;;;;;;22.62;30.85;100067.78;5023476;28;19924;-85
2022/09/18 13:01:46;;;;;;;;;;;;;;;22.60;31.38;100069.97;5001638;28;19913;-92
2022/09/18 13:04:22;;;;;;;;;;;;;;;22.41;31.30;100078.47;5014527;28;19917;-87